Time;durP1;ratioP1;P1;durP2;ratioP2;P2;SDS_P1;SDS_P2;PMS_P1;PMS_P2;Temp;Humidity;BMP_temperature;BMP_pressure;BME280_temperature;BME280_humidity;BME280_pressure;Samples;Min_cycle;Max_cycle;Signal;HPM_P1;HPM_P2
2024/01/20 00:00:25;;;;;;;;;;;;;;;7.58;38.84;100661.47;4469476;32;33948;-81
2024/01/20 00:02:53;;;;;;;;;;;;;;;8.17;37.63;100660.31;4474792;32;34668;-81
2024/01/20 00:05:20;;;;;;;;;;;;;;;8.06;37.66;100660.50;4473339;32;33365;-83
2024/01/20 00:07:48;;;;;;;;;;;;;;;7.87;38.19;100655.75;4469277;32;34263;-81
2024/01/20 00:10:16;;;;;;;;;;;;;;;7.66;38.45;100670.63;4467669;32;33938;-84
2024/01/20 00:12:44;;;;;;;;;;;;;;;7.95;37.87;100663.13;4469718;32;34146;-81
2024/01/20 00:15:12;;;;;;;;;;;;;;;7.81;38.34;100675.06;4469730;32;33763;-80
2024/01/20 00:17:40;;;;;;;;;;;;;;;7.84;38.31;100670.09;4469095;32;34221;-81
2024/01/20 00:20:09;;;;;;;;;;;;;;;7.95;37.95;100674.34;4469687;32;33934;-83
2024/01/20 00:22:37;;;;;;;;;;;;;;;7.68;38.12;100679.34;4476879;32;34542;-82
2024/01/20 00:25:05;;;;;;;;;;;;;;;7.92;37.90;100679.31;4461617;32;33452;-82
2024/01/20 00:27:33;;;;;;;;;;;;;;;7.76;38.31;100691.91;4472423;32;34158;-83
2024/01/20 00:30:02;;;;;;;;;;;;;;;7.85;37.98;100680.53;4473603;32;34935;-81
2024/01/20 00:32:31;;;;;;;;;;;;;;;7.79;38.11;100681.81;4454745;32;32315;-82
2024/01/20 00:34:59;;;;;;;;;;;;;;;7.59;38.66;100682.97;4475488;32;33730;-83
2024/01/20 00:37:35;;;;;;;;;;;;;;;6.88;39.80;100694.25;4462674;32;32364;-81
2024/01/20 00:40:04;;;;;;;;;;;;;;;7.12;39.38;100683.94;4478711;32;34662;-84
2024/01/20 00:42:32;;;;;;;;;;;;;;;6.91;40.07;100685.84;4464646;32;34796;-81
2024/01/20 00:44:59;;;;;;;;;;;;;;;6.98;40.13;100689.78;4469058;32;33557;-81
2024/01/20 00:47:27;;;;;;;;;;;;;;;6.46;41.16;100692.84;4461171;32;34155;-83
2024/01/20 00:49:54;;;;;;;;;;;;;;;6.83;40.71;100690.44;4459556;32;35079;-82
2024/01/20 00:52:22;;;;;;;;;;;;;;;6.96;40.19;100696.50;4481364;32;34015;-81
2024/01/20 00:54:50;;;;;;;;;;;;;;;6.48;41.18;100701.56;4476259;32;33197;-81
2024/01/20 00:57:18;;;;;;;;;;;;;;;6.60;41.33;100695.56;4474386;32;33962;-82
2024/01/20 00:59:46;;;;;;;;;;;;;;;6.59;41.22;100709.22;4473358;32;34237;-82
2024/01/20 01:02:16;;;;;;;;;;;;;;;6.03;42.23;100719.56;4471544;32;34743;-83
2024/01/20 01:04:44;;;;;;;;;;;;;;;6.25;41.97;100716.94;4466994;32;32975;-83
2024/01/20 01:07:12;;;;;;;;;;;;;;;5.84;42.63;100719.75;4461887;32;34102;-84
2024/01/20 01:09:42;;;;;;;;;;;;;;;6.06;42.25;100735.22;4472979;32;34087;-81
2024/01/20 01:12:09;;;;;;;;;;;;;;;5.97;42.74;100734.50;4469587;32;34232;-81
2024/01/20 01:14:37;;;;;;;;;;;;;;;6.43;41.60;100738.97;4479344;32;34186;-80
2024/01/20 01:17:04;;;;;;;;;;;;;;;6.61;41.30;100730.84;4469153;32;33759;-80
2024/01/20 01:19:31;;;;;;;;;;;;;;;6.22;42.11;100732.13;4472945;32;33867;-80
2024/01/20 01:21:59;;;;;;;;;;;;;;;6.35;41.98;100742.59;4468937;32;34243;-81
2024/01/20 01:24:26;;;;;;;;;;;;;;;6.36;41.87;100744.41;4480707;32;33424;-83
2024/01/20 01:26:54;;;;;;;;;;;;;;;5.85;42.18;100760.09;4460935;32;32088;-80
2024/01/20 01:29:22;;;;;;;;;;;;;;;6.61;41.41;100759.16;4475351;32;33945;-80
2024/01/20 01:31:49;;;;;;;;;;;;;;;6.62;41.26;100755.78;4477360;32;35097;-79
2024/01/20 01:34:17;;;;;;;;;;;;;;;5.69;43.23;100750.28;4482311;32;34242;-80
2024/01/20 01:36:44;;;;;;;;;;;;;;;6.42;41.73;100747.44;4479046;32;34246;-81
2024/01/20 01:39:12;;;;;;;;;;;;;;;6.63;41.08;100749.88;4465904;32;34831;-83
2024/01/20 01:41:39;;;;;;;;;;;;;;;6.39;41.58;100747.19;4477554;32;34907;-82
2024/01/20 01:44:07;;;;;;;;;;;;;;;6.65;41.27;100756.03;4470866;32;33600;-83
2024/01/20 01:46:34;;;;;;;;;;;;;;;6.65;41.14;100756.03;4471748;32;34931;-82
2024/01/20 01:49:02;;;;;;;;;;;;;;;6.45;41.42;100752.84;4472154;32;34850;-83
2024/01/20 01:51:29;;;;;;;;;;;;;;;6.59;41.21;100755.56;4476565;32;34277;-81
2024/01/20 01:53:58;;;;;;;;;;;;;;;6.61;41.10;100748.84;4471432;32;32797;-81
2024/01/20 01:56:25;;;;;;;;;;;;;;;6.12;42.34;100751.12;4475824;32;33976;-83
2024/01/20 01:58:53;;;;;;;;;;;;;;;5.97;42.29;100761.12;4467765;32;33868;-81
2024/01/20 02:01:20;;;;;;;;;;;;;;;6.53;40.94;100760.22;4462741;32;34068;-82
2024/01/20 02:03:48;;;;;;;;;;;;;;;6.62;41.18;100755.78;4470178;32;32800;-84
2024/01/20 02:06:16;;;;;;;;;;;;;;;6.65;41.15;100766.31;4456767;32;34142;-84
2024/01/20 02:08:44;;;;;;;;;;;;;;;6.45;41.60;100768.28;4475897;32;34024;-83
2024/01/20 02:11:11;;;;;;;;;;;;;;;6.47;41.31;100766.72;4465060;32;33963;-83
2024/01/20 02:13:38;;;;;;;;;;;;;;;7.18;39.89;100764.25;4476170;32;33065;-80
2024/01/20 02:16:06;;;;;;;;;;;;;;;6.82;39.90;100773.63;4448610;32;33034;-83
2024/01/20 02:18:34;;;;;;;;;;;;;;;6.97;40.21;100772.97;4473148;32;33877;-82
2024/01/20 02:21:04;;;;;;;;;;;;;;;7.06;39.91;100773.66;4479409;32;34274;-83
2024/01/20 02:23:33;;;;;;;;;;;;;;;7.52;39.05;100774.47;4474974;32;34315;-84
2024/01/20 02:26:00;;;;;;;;;;;;;;;6.76;39.93;100780.91;4469482;32;34856;-82
2024/01/20 02:28:28;;;;;;;;;;;;;;;6.78;40.35;100781.91;4472694;32;34555;-80
2024/01/20 02:30:55;;;;;;;;;;;;;;;6.23;41.20;100790.56;4477839;32;33948;-85
2024/01/20 02:33:22;;;;;;;;;;;;;;;6.36;41.18;100788.16;4474635;32;33481;-83
2024/01/20 02:35:50;;;;;;;;;;;;;;;5.87;42.09;100794.56;4474206;31;33958;-84
2024/01/20 02:38:17;;;;;;;;;;;;;;;6.22;41.42;100793.88;4480905;32;35105;-82
2024/01/20 02:40:45;;;;;;;;;;;;;;;5.64;42.65;100800.44;4471688;32;33857;-84
2024/01/20 02:43:12;;;;;;;;;;;;;;;6.01;42.11;100796.59;4475563;32;34158;-83
2024/01/20 02:45:39;;;;;;;;;;;;;;;6.41;41.47;100791.06;4474424;32;33642;-83
2024/01/20 02:48:09;;;;;;;;;;;;;;;5.92;42.37;100803.53;4469982;32;33898;-83
2024/01/20 02:50:37;;;;;;;;;;;;;;;5.54;43.14;100795.34;4470748;32;33604;-82
2024/01/20 02:53:04;;;;;;;;;;;;;;;5.08;44.29;100801.09;4473140;32;33093;-82
2024/01/20 02:55:32;;;;;;;;;;;;;;;4.78;44.97;100803.69;4462877;32;33388;-83
2024/01/20 02:57:59;;;;;;;;;;;;;;;4.91;44.83;100802.25;4473608;32;34757;-83
2024/01/20 03:00:28;;;;;;;;;;;;;;;5.35;43.69;100813.50;4469088;32;34074;-80
2024/01/20 03:02:55;;;;;;;;;;;;;;;5.64;43.31;100816.78;4457872;32;33484;-80
2024/01/20 03:05:23;;;;;;;;;;;;;;;5.25;43.94;100815.34;4470486;32;33828;-84
2024/01/20 03:07:51;;;;;;;;;;;;;;;5.55;43.12;100810.88;4457767;32;34148;-80
2024/01/20 03:10:20;;;;;;;;;;;;;;;6.10;42.30;100815.31;4473200;32;34235;-81
2024/01/20 03:12:47;;;;;;;;;;;;;;;6.48;41.31;100804.53;4482393;32;34324;-84
2024/01/20 03:15:15;;;;;;;;;;;;;;;6.58;40.87;100805.25;4475142;32;34051;-81
2024/01/20 03:17:42;;;;;;;;;;;;;;;6.38;41.53;100812.31;4474094;32;34120;-83
2024/01/20 03:20:10;;;;;;;;;;;;;;;6.71;41.03;100813.13;4460660;32;33266;-84
2024/01/20 03:22:37;;;;;;;;;;;;;;;6.81;40.60;100810.47;4479203;32;33979;-80
2024/01/20 03:25:04;;;;;;;;;;;;;;;6.77;40.45;100818.75;4479118;32;34755;-85
2024/01/20 03:27:32;;;;;;;;;;;;;;;6.43;41.39;100835.84;4474152;32;33926;-84
2024/01/20 03:29:59;;;;;;;;;;;;;;;6.60;40.51;100839.72;4471977;32;34042;-80
2024/01/20 03:32:27;;;;;;;;;;;;;;;6.71;40.70;100833.72;4476975;32;32958;-84
2024/01/20 03:34:54;;;;;;;;;;;;;;;6.60;40.71;100835.47;4477066;32;34991;-82
2024/01/20 03:37:21;;;;;;;;;;;;;;;7.12;39.66;100843.69;4477128;32;33634;-84
2024/01/20 03:39:49;;;;;;;;;;;;;;;6.94;39.60;100834.59;4461955;32;34761;-82
2024/01/20 03:42:16;;;;;;;;;;;;;;;6.54;40.23;100840.16;4467720;32;33388;-83
2024/01/20 03:44:44;;;;;;;;;;;;;;;6.26;41.33;100847.41;4479071;32;34245;-81
2024/01/20 03:47:12;;;;;;;;;;;;;;;6.17;41.17;100859.53;4475784;32;34053;-83
2024/01/20 03:49:39;;;;;;;;;;;;;;;6.21;41.37;100870.19;4468948;32;31941;-81
2024/01/20 03:52:07;;;;;;;;;;;;;;;5.89;41.84;100860.78;4473379;32;33150;-80
2024/01/20 03:54:35;;;;;;;;;;;;;;;6.30;40.97;100875.16;4466527;32;34804;-80
2024/01/20 03:57:02;;;;;;;;;;;;;;;5.93;41.67;100867.06;4479006;32;34942;-82
2024/01/20 03:59:29;;;;;;;;;;;;;;;5.37;42.79;100865.91;4482693;32;35213;-85
2024/01/20 04:01:57;;;;;;;;;;;;;;;6.41;40.70;100861.47;4461860;32;33478;-82
2024/01/20 04:04:24;;;;;;;;;;;;;;;6.12;41.16;100869.44;4472523;32;34053;-81
2024/01/20 04:06:52;;;;;;;;;;;;;;;5.90;41.45;100852.28;4458642;32;34057;-80
2024/01/20 04:09:22;;;;;;;;;;;;;;;5.69;42.34;100872.00;4466206;32;32467;-81
2024/01/20 04:11:50;;;;;;;;;;;;;;;5.28;43.11;100864.37;4479342;32;33414;-84
2024/01/20 04:14:17;;;;;;;;;;;;;;;5.80;42.37;100864.28;4474144;32;34092;-82
2024/01/20 04:16:44;;;;;;;;;;;;;;;5.84;41.99;100868.91;4480923;32;34221;-83
2024/01/20 04:19:12;;;;;;;;;;;;;;;5.28;43.13;100871.19;4476854;32;34692;-81
2024/01/20 04:21:39;;;;;;;;;;;;;;;5.47;42.61;100859.09;4461010;32;33983;-83
2024/01/20 04:24:06;;;;;;;;;;;;;;;5.10;43.86;100855.16;4480143;32;35019;-84
2024/01/20 04:26:34;;;;;;;;;;;;;;;5.04;44.07;100854.63;4478384;32;34828;-85
2024/01/20 04:29:01;;;;;;;;;;;;;;;5.30;43.53;100850.00;4461444;32;34953;-83
2024/01/20 04:31:29;;;;;;;;;;;;;;;5.23;43.73;100847.69;4480963;32;33937;-85
2024/01/20 04:33:57;;;;;;;;;;;;;;;5.82;42.40;100844.72;4471990;32;34127;-81
2024/01/20 04:36:24;;;;;;;;;;;;;;;5.40;43.43;100840.47;4473733;32;34199;-82
2024/01/20 04:38:52;;;;;;;;;;;;;;;5.58;42.86;100842.00;4468444;32;33976;-82
2024/01/20 04:41:19;;;;;;;;;;;;;;;5.29;43.26;100848.22;4455681;32;34248;-83
2024/01/20 04:43:46;;;;;;;;;;;;;;;5.51;42.82;100855.09;4470178;32;34516;-84
2024/01/20 04:46:14;;;;;;;;;;;;;;;5.69;42.39;100866.84;4464021;32;34736;-82
2024/01/20 04:48:41;;;;;;;;;;;;;;;5.80;42.28;100875.47;4468523;32;34992;-81
2024/01/20 04:51:09;;;;;;;;;;;;;;;5.54;42.66;100885.28;4474380;32;33855;-80
2024/01/20 04:53:36;;;;;;;;;;;;;;;6.24;41.90;100879.84;4475251;32;34726;-80
2024/01/20 04:56:04;;;;;;;;;;;;;;;6.60;41.05;100889.53;4477884;32;33956;-83
2024/01/20 04:58:32;;;;;;;;;;;;;;;6.20;41.66;100888.06;4477142;32;33856;-81
2024/01/20 05:00:59;;;;;;;;;;;;;;;6.26;41.46;100898.88;4474528;32;33313;-84
2024/01/20 05:03:27;;;;;;;;;;;;;;;6.53;40.85;100901.78;4474437;32;33902;-83
2024/01/20 05:05:54;;;;;;;;;;;;;;;6.86;40.09;100900.97;4477333;32;34956;-80
2024/01/20 05:08:22;;;;;;;;;;;;;;;6.86;40.28;100904.44;4481411;32;34273;-81
2024/01/20 05:10:49;;;;;;;;;;;;;;;6.89;39.99;100912.41;4479938;32;33491;-82
2024/01/20 05:13:16;;;;;;;;;;;;;;;6.54;40.91;100929.34;4474071;32;33683;-81
2024/01/20 05:15:44;;;;;;;;;;;;;;;7.19;39.66;100917.22;4470558;32;34239;-83
2024/01/20 05:18:11;;;;;;;;;;;;;;;7.13;39.73;100924.44;4472519;32;33224;-82
2024/01/20 05:20:39;;;;;;;;;;;;;;;8.49;36.91;100927.59;4470591;32;33646;-83
2024/01/20 05:23:06;;;;;;;;;;;;;;;7.67;38.22;100921.69;4471055;32;33857;-81
2024/01/20 05:25:33;;;;;;;;;;;;;;;8.33;36.93;100921.31;4447351;32;34019;-80
2024/01/20 05:28:01;;;;;;;;;;;;;;;7.35;38.84;100919.25;4469749;32;34167;-84
2024/01/20 05:30:28;;;;;;;;;;;;;;;7.17;39.15;100924.81;4478303;32;33269;-85
2024/01/20 05:32:55;;;;;;;;;;;;;;;7.77;38.12;100934.47;4476269;32;32570;-83
2024/01/20 05:35:23;;;;;;;;;;;;;;;7.29;39.01;100936.03;4475229;32;33492;-84
2024/01/20 05:37:50;;;;;;;;;;;;;;;6.99;39.50;100933.69;4471826;32;34511;-84
2024/01/20 05:40:18;;;;;;;;;;;;;;;7.35;38.99;100934.72;4478278;32;33739;-84
2024/01/20 05:42:45;;;;;;;;;;;;;;;7.35;38.74;100933.03;4470938;32;34187;-82
2024/01/20 05:45:14;;;;;;;;;;;;;;;7.35;39.19;100945.03;4472496;32;34714;-83
2024/01/20 05:47:42;;;;;;;;;;;;;;;7.13;39.70;100938.25;4473464;32;34163;-83
2024/01/20 05:50:09;;;;;;;;;;;;;;;7.29;39.36;100946.34;4456387;32;33085;-85
2024/01/20 05:52:36;;;;;;;;;;;;;;;6.83;40.40;100953.13;4476229;32;34221;-85
2024/01/20 05:55:05;;;;;;;;;;;;;;;7.20;39.60;100950.81;4474132;32;34154;-81
2024/01/20 05:57:32;;;;;;;;;;;;;;;7.40;39.03;100956.59;4467830;32;34852;-82
2024/01/20 05:59:59;;;;;;;;;;;;;;;6.87;40.13;100974.88;4468671;32;33486;-84
2024/01/20 06:02:27;;;;;;;;;;;;;;;6.44;40.91;100972.37;4473634;32;33021;-83
2024/01/20 06:04:55;;;;;;;;;;;;;;;6.45;40.60;100981.91;4475156;32;35762;-82
2024/01/20 06:07:22;;;;;;;;;;;;;;;7.01;39.86;100981.09;4474536;32;33911;-85
2024/01/20 06:09:49;;;;;;;;;;;;;;;7.33;38.96;100982.69;4472222;32;31912;-83
2024/01/20 06:12:17;;;;;;;;;;;;;;;7.03;39.61;100993.31;4470619;32;34162;-84
2024/01/20 06:14:45;;;;;;;;;;;;;;;6.93;40.21;100990.78;4474729;32;34399;-85
2024/01/20 06:17:12;;;;;;;;;;;;;;;6.82;40.35;100996.81;4458115;32;33828;-82
2024/01/20 06:19:40;;;;;;;;;;;;;;;7.19;39.58;101003.13;4459252;32;31967;-84
2024/01/20 06:22:07;;;;;;;;;;;;;;;7.17;39.44;101002.13;4471138;32;34138;-81
2024/01/20 06:24:34;;;;;;;;;;;;;;;7.55;38.85;101005.84;4471513;32;33832;-83
2024/01/20 06:27:02;;;;;;;;;;;;;;;6.80;39.89;101013.78;4468469;32;34733;-84
2024/01/20 06:29:29;;;;;;;;;;;;;;;7.10;39.58;101015.31;4473918;32;33320;-82
2024/01/20 06:31:56;;;;;;;;;;;;;;;6.67;40.39;101017.97;4480235;32;34206;-82
2024/01/20 06:34:24;;;;;;;;;;;;;;;6.62;40.33;101018.38;4469280;32;33975;-83
2024/01/20 06:36:51;;;;;;;;;;;;;;;7.23;39.40;101020.63;4470871;32;34684;-83
2024/01/20 06:39:19;;;;;;;;;;;;;;;7.37;39.04;101023.37;4471254;32;34008;-83
2024/01/20 06:41:46;;;;;;;;;;;;;;;6.82;39.69;101028.59;4471227;32;34636;-82
2024/01/20 06:44:14;;;;;;;;;;;;;;;7.58;38.53;101022.44;4476083;32;33832;-84
2024/01/20 06:46:42;;;;;;;;;;;;;;;7.09;39.58;101039.28;4475019;32;33966;-82
2024/01/20 06:49:09;;;;;;;;;;;;;;;7.33;39.11;101042.84;4475489;32;33463;-80
2024/01/20 06:51:37;;;;;;;;;;;;;;;7.20;39.29;101043.56;4473176;32;34457;-84
2024/01/20 06:54:04;;;;;;;;;;;;;;;7.45;38.80;101055.78;4473203;32;33869;-82
2024/01/20 06:56:31;;;;;;;;;;;;;;;7.84;38.00;101052.81;4474275;32;34530;-81
2024/01/20 06:58:59;;;;;;;;;;;;;;;7.78;38.06;101061.75;4459274;32;31222;-82
2024/01/20 07:01:26;;;;;;;;;;;;;;;7.72;38.32;101071.59;4473512;32;34129;-84
2024/01/20 07:03:54;;;;;;;;;;;;;;;8.05;37.67;101070.66;4473212;32;33982;-82
2024/01/20 07:06:22;;;;;;;;;;;;;;;8.14;37.53;101078.22;4478952;32;34461;-83
2024/01/20 07:08:50;;;;;;;;;;;;;;;8.20;37.37;101078.66;4471640;32;34082;-82
2024/01/20 07:11:18;;;;;;;;;;;;;;;8.16;37.38;101093.00;4449803;32;34188;-83
2024/01/20 07:13:46;;;;;;;;;;;;;;;8.39;36.59;101087.00;4474936;32;33559;-81
2024/01/20 07:16:14;;;;;;;;;;;;;;;7.71;37.89;101090.41;4460211;32;34234;-80
2024/01/20 07:18:42;;;;;;;;;;;;;;;7.60;38.15;101098.22;4443780;32;31677;-82
2024/01/20 07:21:09;;;;;;;;;;;;;;;7.77;37.66;101102.13;4470473;32;33919;-82
2024/01/20 07:23:36;;;;;;;;;;;;;;;7.66;38.30;101109.03;4476103;32;33925;-80
2024/01/20 07:26:04;;;;;;;;;;;;;;;7.53;38.37;101114.00;4477719;32;34099;-81
2024/01/20 07:28:31;;;;;;;;;;;;;;;7.42;38.50;101112.28;4475311;32;33368;-82
2024/01/20 07:30:59;;;;;;;;;;;;;;;7.46;38.86;101114.31;4469345;32;33471;-84
2024/01/20 07:33:26;;;;;;;;;;;;;;;7.33;38.97;101127.03;4479360;32;34754;-84
2024/01/20 07:35:54;;;;;;;;;;;;;;;7.76;38.38;101127.78;4478094;32;34085;-81
2024/01/20 07:38:21;;;;;;;;;;;;;;;7.11;39.57;101140.78;4473929;32;32483;-83
2024/01/20 07:40:48;;;;;;;;;;;;;;;6.87;40.15;101135.44;4456631;32;33509;-83
2024/01/20 07:43:16;;;;;;;;;;;;;;;7.24;39.64;101135.84;4456219;32;34577;-81
2024/01/20 07:45:43;;;;;;;;;;;;;;;7.41;39.36;101141.41;4470223;32;33812;-82
2024/01/20 07:48:10;;;;;;;;;;;;;;;7.43;38.96;101145.00;4472229;32;33210;-83
2024/01/20 07:50:38;;;;;;;;;;;;;;;7.74;38.46;101147.41;4472457;32;33091;-83
2024/01/20 07:53:05;;;;;;;;;;;;;;;6.86;40.15;101148.22;4479497;32;35008;-83
2024/01/20 07:55:33;;;;;;;;;;;;;;;7.51;39.18;101158.50;4450289;32;788973;-81
2024/01/20 07:58:00;;;;;;;;;;;;;;;7.39;39.45;101163.59;4475220;32;34213;-84
2024/01/20 08:00:28;;;;;;;;;;;;;;;7.38;41.28;101166.94;4471460;32;35435;-84
2024/01/20 08:02:56;;;;;;;;;;;;;;;7.48;39.71;101169.50;4456261;32;33863;-86
2024/01/20 08:05:23;;;;;;;;;;;;;;;7.38;39.79;101172.09;4473207;32;34611;-82
2024/01/20 08:07:50;;;;;;;;;;;;;;;7.86;38.96;101163.81;4473268;32;33960;-86
2024/01/20 08:10:17;;;;;;;;;;;;;;;7.85;38.79;101169.78;4474494;32;33922;-84
2024/01/20 08:12:45;;;;;;;;;;;;;;;7.57;39.60;101172.78;4474488;32;34033;-85
2024/01/20 08:15:12;;;;;;;;;;;;;;;7.44;39.65;101170.03;4458899;32;34103;-85
2024/01/20 08:17:39;;;;;;;;;;;;;;;7.76;39.11;101171.63;4476835;32;33148;-84
2024/01/20 08:20:10;;;;;;;;;;;;;;;7.80;38.92;101169.44;4474826;32;33705;-83
2024/01/20 08:22:37;;;;;;;;;;;;;;;7.53;41.80;101178.47;4475956;32;34216;-81
2024/01/20 08:25:05;;;;;;;;;;;;;;;7.26;40.28;101160.06;4473087;32;33580;-82
2024/01/20 08:27:33;;;;;;;;;;;;;;;7.68;39.65;101174.50;4473720;32;33408;-85
2024/01/20 08:30:00;;;;;;;;;;;;;;;7.78;39.70;101177.81;4473647;32;34036;-82
2024/01/20 08:32:28;;;;;;;;;;;;;;;7.90;39.17;101171.03;4475859;32;35013;-85
2024/01/20 08:34:56;;;;;;;;;;;;;;;8.11;38.62;101169.19;4474617;32;34968;-83
2024/01/20 08:37:23;;;;;;;;;;;;;;;7.87;39.21;101181.12;4476595;32;32661;-83
2024/01/20 08:39:50;;;;;;;;;;;;;;;7.72;39.15;101185.09;4473860;32;34117;-82
2024/01/20 08:42:19;;;;;;;;;;;;;;;7.20;40.49;101187.00;4475693;32;35535;-86
2024/01/20 08:44:46;;;;;;;;;;;;;;;7.71;39.73;101185.84;4474940;32;33535;-87
2024/01/20 08:47:14;;;;;;;;;;;;;;;7.91;39.31;101187.41;4474968;32;33844;-82
2024/01/20 08:49:42;;;;;;;;;;;;;;;8.29;38.52;101198.09;4474504;32;34105;-84
2024/01/20 08:52:10;;;;;;;;;;;;;;;8.02;39.49;101197.78;4458027;32;33958;-83
2024/01/20 08:54:39;;;;;;;;;;;;;;;7.97;39.26;101199.09;4477408;32;33452;-83
2024/01/20 08:57:07;;;;;;;;;;;;;;;8.16;43.71;101200.53;4475705;32;33477;-82
2024/01/20 08:59:34;;;;;;;;;;;;;;;8.52;39.20;101189.56;4472836;32;34091;-83
2024/01/20 09:02:03;;;;;;;;;;;;;;;8.60;38.14;101192.72;4474940;32;34919;-83
2024/01/20 09:04:31;;;;;;;;;;;;;;;8.27;39.02;101207.41;4474697;32;34682;-83
2024/01/20 09:06:58;;;;;;;;;;;;;;;8.25;38.96;101207.28;4473983;32;32809;-82
2024/01/20 09:09:25;;;;;;;;;;;;;;;8.48;38.62;101204.69;4471372;32;34053;-85
2024/01/20 09:11:53;;;;;;;;;;;;;;;8.60;38.51;101210.78;4469122;32;33752;-85
2024/01/20 09:14:20;;;;;;;;;;;;;;;8.95;37.84;101220.28;4476572;32;34227;-85
2024/01/20 09:16:48;;;;;;;;;;;;;;;9.73;36.05;101222.44;4465795;32;34159;-81
2024/01/20 09:19:15;;;;;;;;;;;;;;;9.74;36.26;101219.06;4477712;32;34695;-82
2024/01/20 09:21:44;;;;;;;;;;;;;;;9.23;37.26;101218.00;4473203;32;34278;-83
2024/01/20 09:24:12;;;;;;;;;;;;;;;9.40;36.82;101221.81;4458790;32;34727;-80
2024/01/20 09:26:39;;;;;;;;;;;;;;;9.96;35.81;101221.47;4471759;32;33313;-82
2024/01/20 09:29:08;;;;;;;;;;;;;;;9.69;35.91;101210.97;4474709;32;35035;-83
2024/01/20 09:31:36;;;;;;;;;;;;;;;9.50;36.38;101208.75;4462835;32;34155;-81
2024/01/20 09:34:03;;;;;;;;;;;;;;;8.13;38.52;101218.34;4476337;32;33613;-82
2024/01/20 09:36:31;;;;;;;;;;;;;;;8.42;38.59;101216.37;4481179;32;33307;-82
2024/01/20 09:38:59;;;;;;;;;;;;;;;8.22;38.76;101225.12;4478516;32;34140;-80
2024/01/20 09:41:26;;;;;;;;;;;;;;;8.04;39.10;101229.75;4476462;32;34923;-83
2024/01/20 09:43:53;;;;;;;;;;;;;;;8.40;38.61;101228.22;4458200;32;32586;-83
2024/01/20 09:46:21;;;;;;;;;;;;;;;7.94;39.14;101224.69;4479170;32;33123;-82
2024/01/20 09:48:55;;;;;;;;;;;;;;;8.42;38.80;101226.69;4461917;32;34854;-82
2024/01/20 09:51:28;;;;;;;;;;;;;;;8.78;37.95;101212.16;4474799;32;34627;-83
2024/01/20 09:53:59;;;;;;;;;;;;;;;8.74;37.87;101204.97;4472498;32;34318;-82
2024/01/20 09:56:27;;;;;;;;;;;;;;;9.05;37.72;101196.88;4465086;32;33069;-81
2024/01/20 09:58:56;;;;;;;;;;;;;;;9.69;36.88;101197.13;4461967;32;32929;-84
2024/01/20 10:01:24;;;;;;;;;;;;;;;9.59;36.47;101198.16;4433953;32;34016;-83
2024/01/20 10:03:52;;;;;;;;;;;;;;;9.67;36.59;101193.53;4476982;32;33694;-80
2024/01/20 10:06:19;;;;;;;;;;;;;;;9.33;37.12;101198.88;4455358;32;33436;-84
2024/01/20 10:08:46;;;;;;;;;;;;;;;8.85;38.16;101201.50;4472236;32;34376;-83
2024/01/20 10:11:14;;;;;;;;;;;;;;;9.88;36.10;101200.22;4478232;32;35018;-86
2024/01/20 10:13:41;;;;;;;;;;;;;;;9.56;36.73;101201.44;4475561;32;34734;-85
2024/01/20 10:16:09;;;;;;;;;;;;;;;9.86;36.34;101209.56;4474104;32;34259;-83
2024/01/20 10:18:36;;;;;;;;;;;;;;;9.25;37.00;101212.19;4461190;32;34193;-85
2024/01/20 10:21:04;;;;;;;;;;;;;;;9.27;36.94;101208.78;4475882;32;34232;-83
2024/01/20 10:23:36;;;;;;;;;;;;;;;9.74;36.23;101203.53;4476040;32;34726;-86
2024/01/20 10:26:03;;;;;;;;;;;;;;;10.24;35.25;101213.94;4467926;32;33975;-78
2024/01/20 10:28:31;;;;;;;;;;;;;;;10.30;34.92;101208.28;4468170;32;33748;-84
2024/01/20 10:30:58;;;;;;;;;;;;;;;10.26;34.68;101207.16;4476770;32;33868;-81
2024/01/20 10:33:26;;;;;;;;;;;;;;;9.62;35.87;101201.88;4463674;32;33015;-83
2024/01/20 10:35:54;;;;;;;;;;;;;;;10.50;34.92;101191.50;4474797;32;33531;-84
2024/01/20 10:38:21;;;;;;;;;;;;;;;10.69;34.42;101194.53;4460238;32;33759;-84
2024/01/20 10:40:51;;;;;;;;;;;;;;;10.58;34.48;101198.09;4462271;32;33885;-83
2024/01/20 10:43:18;;;;;;;;;;;;;;;10.69;34.65;101204.91;4461153;32;33625;-84
2024/01/20 10:45:49;;;;;;;;;;;;;;;11.14;35.32;101195.75;4472300;32;33305;-81
2024/01/20 10:48:21;;;;;;;;;;;;;;;10.48;36.17;101203.47;4447981;32;32908;-85
2024/01/20 10:50:52;;;;;;;;;;;;;;;10.82;34.52;101207.50;4460743;32;34049;-84
2024/01/20 10:53:20;;;;;;;;;;;;;;;11.03;34.03;101207.16;4465310;32;34339;-83
2024/01/20 10:55:47;;;;;;;;;;;;;;;11.04;33.76;101208.91;4475335;32;33350;-84
2024/01/20 10:58:15;;;;;;;;;;;;;;;11.09;33.85;101199.75;4461473;32;34552;-83
2024/01/20 11:00:43;;;;;;;;;;;;;;;10.86;34.10;101195.66;4478583;32;34196;-81
2024/01/20 11:03:11;;;;;;;;;;;;;;;10.59;34.39;101197.31;4459766;32;34348;-80
2024/01/20 11:05:38;;;;;;;;;;;;;;;10.79;34.43;101193.44;4465187;32;33556;-84
2024/01/20 11:08:07;;;;;;;;;;;;;;;10.40;35.60;101196.06;4479584;32;33885;-80
2024/01/20 11:10:40;;;;;;;;;;;;;;;10.74;42.82;101202.59;4462461;32;34079;-82
2024/01/20 11:13:09;;;;;;;;;;;;;;;10.10;39.48;101199.13;4472270;32;34163;-80
2024/01/20 11:15:36;;;;;;;;;;;;;;;10.62;37.92;101197.50;4463065;32;31920;-82
2024/01/20 11:18:14;;;;;;;;;;;;;;;11.23;39.84;101204.94;4479771;32;33586;-82
2024/01/20 11:21:01;;;;;;;;;;;;;;;11.63;37.12;101203.19;4477055;32;34081;-85
2024/01/20 11:23:29;;;;;;;;;;;;;;;11.77;38.26;101204.06;4460712;32;34435;-82
2024/01/20 11:25:57;;;;;;;;;;;;;;;11.27;36.16;101206.94;4469533;32;33667;-81
2024/01/20 11:28:26;;;;;;;;;;;;;;;11.13;37.79;101199.16;4460171;32;33611;-82
2024/01/20 11:30:54;;;;;;;;;;;;;;;10.79;37.05;101191.75;4459376;32;33047;-82
2024/01/20 11:33:23;;;;;;;;;;;;;;;10.73;37.79;101201.72;4473253;32;34161;-82
2024/01/20 11:35:53;;;;;;;;;;;;;;;11.50;38.48;101196.31;4474365;32;33437;-81
2024/01/20 11:38:20;;;;;;;;;;;;;;;11.98;35.27;101196.72;4472014;32;33251;-77
2024/01/20 11:40:57;;;;;;;;;;;;;;;12.14;32.68;101193.37;4471425;32;33598;-85
2024/01/20 11:43:24;;;;;;;;;;;;;;;11.90;35.05;101198.84;4474499;32;34270;-80
2024/01/20 11:45:52;;;;;;;;;;;;;;;11.85;35.42;101196.75;4479076;32;34022;-83
2024/01/20 11:48:21;;;;;;;;;;;;;;;12.11;33.07;101187.97;4459863;32;34528;-81
2024/01/20 11:50:49;;;;;;;;;;;;;;;12.11;33.77;101190.56;4456863;32;33952;-82
2024/01/20 11:53:17;;;;;;;;;;;;;;;12.23;35.98;101182.59;4458030;32;34810;-79
2024/01/20 11:55:54;;;;;;;;;;;;;;;12.19;34.31;101190.25;4456434;32;33358;-84
2024/01/20 11:58:22;;;;;;;;;;;;;;;12.05;36.23;101185.00;4471721;32;32831;-82
2024/01/20 12:00:51;;;;;;;;;;;;;;;11.51;35.57;101198.12;4471263;32;34853;-83
2024/01/20 12:03:19;;;;;;;;;;;;;;;11.35;39.88;101196.22;4462536;32;34088;-80
2024/01/20 12:05:46;;;;;;;;;;;;;;;11.51;38.08;101192.94;4472385;32;33045;-83
2024/01/20 12:08:14;;;;;;;;;;;;;;;12.25;36.24;101174.12;4473130;32;34091;-84
2024/01/20 12:10:42;;;;;;;;;;;;;;;12.40;34.19;101171.56;4459788;32;32982;-85
2024/01/20 12:13:13;;;;;;;;;;;;;;;12.04;37.68;101165.03;4460565;32;34285;-83
2024/01/20 12:15:45;;;;;;;;;;;;;;;12.47;35.33;101159.81;4471190;32;33695;-82
2024/01/20 12:18:12;;;;;;;;;;;;;;;12.23;34.50;101161.81;4460060;32;32404;-85
2024/01/20 12:20:40;;;;;;;;;;;;;;;11.37;34.80;101163.50;4447582;32;33843;-82
2024/01/20 12:23:07;;;;;;;;;;;;;;;11.54;32.95;101156.78;4472037;32;34534;-82
2024/01/20 12:25:35;;;;;;;;;;;;;;;11.02;33.99;101161.25;4472966;32;33166;-83
2024/01/20 12:28:03;;;;;;;;;;;;;;;11.08;34.09;101152.97;4472571;32;34115;-84
2024/01/20 12:30:30;;;;;;;;;;;;;;;10.42;35.27;101155.63;4474543;32;34804;-83
2024/01/20 12:32:58;;;;;;;;;;;;;;;10.88;34.65;101150.00;4470433;32;34477;-82
2024/01/20 12:35:25;;;;;;;;;;;;;;;10.68;34.78;101150.38;4473852;32;33145;-80
2024/01/20 12:37:52;;;;;;;;;;;;;;;11.28;34.19;101151.66;4471395;32;35086;-83
2024/01/20 12:40:20;;;;;;;;;;;;;;;10.80;41.46;101146.91;4474238;32;34117;-82
2024/01/20 12:42:47;;;;;;;;;;;;;;;11.45;38.13;101145.81;4469718;32;33630;-81
2024/01/20 12:45:15;;;;;;;;;;;;;;;11.81;37.39;101151.50;4474249;32;33123;-83
2024/01/20 12:47:43;;;;;;;;;;;;;;;11.69;35.57;101150.78;4470439;32;33676;-83